createdAt,value
2023-01-19T00:01:56.808Z,3.48
2023-01-19T00:04:23.164Z,3.44
2023-01-19T00:06:49.504Z,3.36
2023-01-19T00:09:15.915Z,3.31
2023-01-19T00:11:42.313Z,3.27
2023-01-19T00:14:08.708Z,3.25
2023-01-19T00:16:35.116Z,3.25
2023-01-19T00:19:06.884Z,3.18
2023-01-19T00:21:33.263Z,3.17
2023-01-19T00:23:59.598Z,3.21
2023-01-19T00:26:28.474Z,3.15
2023-01-19T00:28:57.771Z,3.04
2023-01-19T00:31:24.354Z,2.95
2023-01-19T00:33:53.099Z,2.67
2023-01-19T00:36:22.760Z,2.63
2023-01-19T00:38:49.473Z,2.56
2023-01-19T00:41:19.962Z,2.52
2023-01-19T00:43:46.291Z,2.62
2023-01-19T00:46:12.733Z,2.45
2023-01-19T00:48:39.107Z,2.39
2023-01-19T00:51:05.574Z,2.43
2023-01-19T00:53:32.655Z,2.56
2023-01-19T00:55:59.128Z,2.71
2023-01-19T00:58:33.534Z,2.75
2023-01-19T01:01:06.633Z,2.88
2023-01-19T01:03:33.618Z,2.98
2023-01-19T01:06:10.250Z,3.02
2023-01-19T01:08:36.679Z,3.14
2023-01-19T01:11:06.790Z,3.23
2023-01-19T01:13:37.800Z,3.27
2023-01-19T01:16:09.687Z,3.28
2023-01-19T01:18:38.921Z,3.24
2023-01-19T01:21:08.352Z,3.28
2023-01-19T01:23:35.554Z,3.24
2023-01-19T01:26:02.972Z,3.18
2023-01-19T01:28:32.639Z,3.10
2023-01-19T01:30:59.262Z,3.06
2023-01-19T01:33:39.824Z,3.05
2023-01-19T01:36:16.145Z,3.06
2023-01-19T01:38:42.733Z,3.09
2023-01-19T01:41:16.113Z,3.07
2023-01-19T01:43:55.689Z,3.01
2023-01-19T01:46:26.842Z,2.96
2023-01-19T01:49:10.445Z,2.95
2023-01-19T01:51:42.220Z,2.95
2023-01-19T01:54:08.500Z,2.97
2023-01-19T01:56:44.627Z,3.10
2023-01-19T01:59:43.648Z,3.10
2023-01-19T02:02:37.329Z,3.18
2023-01-19T02:05:35.788Z,3.16
2023-01-19T02:08:59.495Z,3.11
2023-01-19T02:11:46.845Z,3.20
2023-01-19T02:14:18.565Z,3.23
2023-01-19T02:16:46.032Z,3.23
2023-01-19T02:19:17.960Z,3.36
2023-01-19T02:22:09.712Z,3.42
2023-01-19T02:27:19.024Z,3.49
2023-01-19T02:29:47.904Z,3.50
2023-01-19T02:32:14.405Z,3.47
2023-01-19T02:34:45.552Z,3.39
2023-01-19T02:37:18.326Z,3.38
2023-01-19T02:39:55.840Z,3.41
2023-01-19T02:43:00.841Z,3.57
2023-01-19T02:48:20.636Z,3.56
2023-01-19T02:50:53.877Z,3.57
2023-01-19T02:53:45.683Z,3.65
2023-01-19T02:56:51.047Z,3.65
2023-01-19T02:59:52.932Z,3.60
2023-01-19T03:02:50.924Z,3.65
2023-01-19T03:05:52.711Z,3.68
2023-01-19T03:08:53.336Z,3.65
2023-01-19T03:11:20.653Z,3.65
2023-01-19T03:14:10.238Z,3.64
2023-01-19T03:16:42.562Z,3.63
2023-01-19T03:19:19.156Z,3.69
2023-01-19T03:22:13.922Z,3.66
2023-01-19T03:24:46.464Z,3.58
2023-01-19T03:27:28.284Z,3.61
2023-01-19T03:30:24.610Z,3.63
2023-01-19T03:33:13.515Z,3.75
2023-01-19T03:35:49.639Z,3.69
2023-01-19T03:38:24.412Z,3.70
2023-01-19T03:40:56.043Z,3.77
2023-01-19T03:43:25.937Z,3.77
2023-01-19T03:45:56.877Z,3.74
2023-01-19T03:48:25.413Z,3.75
2023-01-19T03:50:52.787Z,3.79
2023-01-19T03:53:23.490Z,3.71
2023-01-19T03:55:55.005Z,3.66
2023-01-19T03:58:22.312Z,3.66
2023-01-19T04:03:29.032Z,3.69
2023-01-19T04:05:59.472Z,3.64
2023-01-19T04:08:28.721Z,3.62
2023-01-19T04:10:59.601Z,3.58
2023-01-19T04:13:29.485Z,3.56
2023-01-19T04:16:11.604Z,3.53
2023-01-19T04:18:43.074Z,3.48
2023-01-19T04:21:09.524Z,3.47
2023-01-19T04:23:35.938Z,3.43
2023-01-19T04:26:06.874Z,3.33
2023-01-19T04:28:42.326Z,3.34
2023-01-19T04:31:12.304Z,3.26
2023-01-19T04:33:41.898Z,3.23
2023-01-19T04:36:08.704Z,3.25
2023-01-19T04:38:38.833Z,3.24
2023-01-19T04:41:08.047Z,3.24
2023-01-19T04:43:34.494Z,3.17
2023-01-19T04:46:04.383Z,3.14
2023-01-19T04:48:30.892Z,3.08
2023-01-19T04:50:57.255Z,3.06
2023-01-19T04:53:26.741Z,3.08
2023-01-19T04:55:57.126Z,3.08
2023-01-19T04:58:26.081Z,3.10
2023-01-19T05:00:53.109Z,3.07
2023-01-19T05:03:20.090Z,3.06
2023-01-19T05:05:46.580Z,3.07
2023-01-19T05:08:18.260Z,3.11
2023-01-19T05:10:44.654Z,3.08
2023-01-19T05:13:11.050Z,3.05
2023-01-19T05:15:42.039Z,3.06
2023-01-19T05:18:08.412Z,3.11
2023-01-19T05:20:34.808Z,3.07
2023-01-19T05:23:03.175Z,3.09
2023-01-19T05:25:32.113Z,3.09
2023-01-19T05:27:58.490Z,3.13
2023-01-19T05:30:28.448Z,3.16
2023-01-19T05:32:57.717Z,3.07
2023-01-19T05:35:35.314Z,3.10
2023-01-19T05:38:04.361Z,3.12
2023-01-19T05:40:33.112Z,3.06
2023-01-19T05:43:04.654Z,3.06
2023-01-19T05:45:31.186Z,3.07
2023-01-19T05:48:00.565Z,3.07
2023-01-19T05:50:29.753Z,3.07
2023-01-19T05:53:03.883Z,3.20
2023-01-19T05:55:31.293Z,3.29
2023-01-19T05:57:57.706Z,3.36
2023-01-19T06:00:29.106Z,3.36
2023-01-19T06:02:55.620Z,3.30
2023-01-19T06:05:22.015Z,3.33
2023-01-19T06:07:53.898Z,3.26
2023-01-19T06:10:20.270Z,3.29
2023-01-19T06:12:46.584Z,3.26
2023-01-19T06:15:16.465Z,3.16
2023-01-19T06:17:45.754Z,3.12
2023-01-19T06:20:15.992Z,3.11
2023-01-19T06:22:42.319Z,3.08
2023-01-19T06:25:09.245Z,3.11
2023-01-19T06:27:36.382Z,3.22
2023-01-19T06:30:07.245Z,3.41
2023-01-19T06:32:33.680Z,3.46
2023-01-19T06:35:00.115Z,3.46
2023-01-19T06:37:28.245Z,3.43
2023-01-19T06:39:56.969Z,3.43
2023-01-19T06:42:23.296Z,3.38
2023-01-19T06:44:52.155Z,3.38
2023-01-19T06:47:25.754Z,3.35
2023-01-19T06:52:36.942Z,3.30
2023-01-19T06:55:06.722Z,3.26
2023-01-19T06:57:33.157Z,3.25
2023-01-19T07:00:05.074Z,3.19
2023-01-19T07:02:31.684Z,3.16
2023-01-19T07:04:58.174Z,3.12
2023-01-19T07:07:33.694Z,3.11
2023-01-19T07:10:00.058Z,3.07
2023-01-19T07:12:31.018Z,3.05
2023-01-19T07:15:00.155Z,2.99
2023-01-19T07:17:28.730Z,2.91
2023-01-19T07:20:04.209Z,2.83
2023-01-19T07:22:43.316Z,2.76
2023-01-19T07:25:09.891Z,2.69
2023-01-19T07:27:41.453Z,2.60
2023-01-19T07:30:09.047Z,2.52
2023-01-19T07:32:43.329Z,2.45
2023-01-19T07:35:12.559Z,2.47
2023-01-19T07:37:46.346Z,2.49
2023-01-19T07:40:15.863Z,2.66
2023-01-19T07:42:55.437Z,2.72
2023-01-19T07:45:22.001Z,2.73
2023-01-19T07:47:57.691Z,2.72
2023-01-19T07:50:26.019Z,2.78
2023-01-19T07:52:55.655Z,2.84
2023-01-19T07:55:25.136Z,2.88
2023-01-19T07:57:54.359Z,2.83
2023-01-19T08:00:25.500Z,2.80
2023-01-19T08:02:52.495Z,2.78
2023-01-19T08:05:24.060Z,2.75
2023-01-19T08:07:52.643Z,2.67
2023-01-19T08:10:25.619Z,2.62
2023-01-19T08:12:56.214Z,2.59
2023-01-19T08:15:27.989Z,2.55
2023-01-19T08:18:01.412Z,2.54
2023-01-19T08:20:31.362Z,2.51
2023-01-19T08:23:02.065Z,2.51
2023-01-19T08:25:36.420Z,2.47
2023-01-19T08:28:07.228Z,2.41
2023-01-19T08:30:39.491Z,2.35
2023-01-19T08:33:10.973Z,2.31
2023-01-19T08:35:41.290Z,2.30
2023-01-19T08:38:08.915Z,2.27
2023-01-19T08:40:42.768Z,2.27
2023-01-19T08:43:16.957Z,2.27
2023-01-19T08:45:56.422Z,2.30
2023-01-19T08:48:34.408Z,2.32
2023-01-19T08:51:00.852Z,2.36
2023-01-19T08:53:42.074Z,2.43
2023-01-19T08:56:14.663Z,2.51
2023-01-19T08:58:43.590Z,2.67
2023-01-19T09:01:38.716Z,2.86
2023-01-19T09:04:05.556Z,2.92
2023-01-19T09:06:33.063Z,2.91
2023-01-19T09:09:02.515Z,2.91
2023-01-19T09:11:31.890Z,2.97
2023-01-19T10:05:58.129Z,4.49
2023-01-19T10:08:54.686Z,4.55
2023-01-19T10:11:51.592Z,4.62
2023-01-19T10:14:39.569Z,4.69
2023-01-19T10:17:21.001Z,4.85
2023-01-19T10:19:56.154Z,4.88
2023-01-19T10:22:28.429Z,4.91
2023-01-19T10:24:59.194Z,5.00
2023-01-19T10:27:31.044Z,5.00
2023-01-19T10:30:01.318Z,5.04
2023-01-19T10:32:34.169Z,5.12
2023-01-19T10:35:02.971Z,5.19
2023-01-19T10:37:39.610Z,5.24
2023-01-19T10:40:36.960Z,5.31
2023-01-19T10:43:37.223Z,5.30
2023-01-19T10:46:27.177Z,5.40
2023-01-19T10:48:57.116Z,5.42
2023-01-19T10:51:23.698Z,5.50
2023-01-19T10:54:03.066Z,5.53
2023-01-19T10:56:38.491Z,5.58
2023-01-19T10:59:06.889Z,5.59
2023-01-19T11:01:39.838Z,5.69
2023-01-19T11:04:31.433Z,5.74
2023-01-19T11:07:14.852Z,5.77
2023-01-19T11:10:10.343Z,5.80
2023-01-19T11:12:42.069Z,5.88
2023-01-19T11:15:19.444Z,5.93
2023-01-19T11:17:49.048Z,5.95
2023-01-19T11:20:30.774Z,5.98
2023-01-19T11:23:19.214Z,6.04
2023-01-19T11:25:54.530Z,6.11
2023-01-19T11:28:43.601Z,6.03
2023-01-19T11:31:11.935Z,5.91
2023-01-19T11:33:49.053Z,5.80
2023-01-19T11:36:45.927Z,5.72
2023-01-19T11:39:12.297Z,5.60
2023-01-19T11:41:42.491Z,5.52
2023-01-19T11:44:18.149Z,5.47
2023-01-19T11:46:51.944Z,5.54
2023-01-19T11:49:46.648Z,5.62
2023-01-19T11:52:34.533Z,5.65
2023-01-19T11:55:16.293Z,5.70
2023-01-19T11:57:46.597Z,5.74
2023-01-19T12:00:38.332Z,5.75
2023-01-19T12:03:34.797Z,5.75
2023-01-19T12:06:23.737Z,5.75
2023-01-19T12:08:56.012Z,5.78
2023-01-19T12:11:31.605Z,5.83
2023-01-19T12:14:05.657Z,5.86
2023-01-19T12:16:37.410Z,5.81
2023-01-19T12:19:18.382Z,5.68
2023-01-19T12:21:51.495Z,5.67
2023-01-19T12:24:28.354Z,5.59
2023-01-19T12:26:57.709Z,5.57
2023-01-19T12:29:28.795Z,5.53
2023-01-19T12:32:20.986Z,5.43
2023-01-19T12:34:58.081Z,5.42
2023-01-19T12:37:27.164Z,5.39
2023-01-19T12:40:02.171Z,5.34
2023-01-19T12:42:29.880Z,5.37
2023-01-19T12:45:15.675Z,5.48
2023-01-19T12:47:52.900Z,5.51
2023-01-19T12:50:29.592Z,5.63
2023-01-19T12:53:04.946Z,5.76
2023-01-19T12:55:36.432Z,5.75
2023-01-19T12:58:27.238Z,5.84
2023-01-19T13:01:18.705Z,6.09
2023-01-19T13:04:28.326Z,6.29
2023-01-19T13:07:08.413Z,6.29
2023-01-19T13:09:42.536Z,6.28
2023-01-19T13:12:25.673Z,6.25
2023-01-19T13:15:27.572Z,6.33
2023-01-19T13:18:25.542Z,6.37
2023-01-19T13:21:07.257Z,6.40
2023-01-19T13:23:51.854Z,6.48
2023-01-19T13:26:23.027Z,6.60
2023-01-19T13:28:55.368Z,6.60
2023-01-19T13:31:26.082Z,6.53
2023-01-19T13:33:58.817Z,6.45
2023-01-19T13:36:37.388Z,6.39
2023-01-19T13:39:18.300Z,6.36
2023-01-19T13:41:51.977Z,6.27
2023-01-19T13:45:03.011Z,6.11
2023-01-19T13:47:41.066Z,6.06
2023-01-19T13:50:23.463Z,6.08
2023-01-19T13:55:37.528Z,5.97
2023-01-19T13:58:07.378Z,5.89
2023-01-19T14:00:33.999Z,5.88
2023-01-19T14:03:15.640Z,5.80
2023-01-19T14:05:53.230Z,5.65
2023-01-19T14:08:25.621Z,5.58
2023-01-19T14:10:56.313Z,5.53
2023-01-19T14:13:50.631Z,5.37
2023-01-19T14:16:20.332Z,5.28
2023-01-19T14:18:59.019Z,5.25
2023-01-19T14:21:25.572Z,5.17
2023-01-19T14:24:17.878Z,5.15
2023-01-19T14:27:19.186Z,5.06
2023-01-19T14:29:47.437Z,5.00
2023-01-19T14:32:41.100Z,4.98
2023-01-19T14:35:10.882Z,4.95
2023-01-19T14:37:50.792Z,5.05
2023-01-19T14:40:22.874Z,5.10
2023-01-19T14:42:57.930Z,5.11
2023-01-19T14:45:49.872Z,5.03
2023-01-19T14:48:20.398Z,4.99
2023-01-19T14:51:02.793Z,4.94
2023-01-19T14:53:39.689Z,4.95
2023-01-19T14:56:06.975Z,4.96
2023-01-19T14:58:37.902Z,4.90
2023-01-19T15:01:09.141Z,4.86
2023-01-19T15:03:46.076Z,4.85
2023-01-19T15:06:20.789Z,4.81
2023-01-19T15:08:50.104Z,4.87
2023-01-19T15:11:35.898Z,4.82
2023-01-19T15:14:11.722Z,4.74
2023-01-19T15:16:38.210Z,4.66
2023-01-19T15:19:09.019Z,4.65
2023-01-19T15:21:35.646Z,4.64
2023-01-19T15:24:01.961Z,4.57
2023-01-19T15:26:33.069Z,4.52
2023-01-19T15:28:59.469Z,4.48
2023-01-19T15:31:26.524Z,4.46
2023-01-19T15:33:56.727Z,4.41
2023-01-19T15:36:25.880Z,4.37
2023-01-19T15:38:59.665Z,4.30
2023-01-19T15:41:29.940Z,4.24
2023-01-19T15:44:01.266Z,4.16
2023-01-19T15:46:30.726Z,4.06
2023-01-19T15:48:57.087Z,3.97
2023-01-19T15:51:28.212Z,3.88
2023-01-19T15:53:58.680Z,3.75
2023-01-19T15:56:27.947Z,3.64
2023-01-19T15:58:58.768Z,3.52
2023-01-19T16:01:39.991Z,3.46
2023-01-19T16:04:13.303Z,3.32
2023-01-19T16:06:42.399Z,3.20
2023-01-19T16:09:08.780Z,3.07
2023-01-19T16:11:38.319Z,2.95
2023-01-19T16:14:04.881Z,2.84
2023-01-19T16:16:31.423Z,2.76
2023-01-19T16:19:02.527Z,2.68
2023-01-19T16:21:28.954Z,2.62
2023-01-19T16:23:55.438Z,2.59
2023-01-19T16:26:34.351Z,2.57
2023-01-19T16:29:14.228Z,2.54
2023-01-19T16:31:43.207Z,2.47
2023-01-19T16:34:14.999Z,2.40
2023-01-19T16:36:42.393Z,2.32
2023-01-19T16:39:12.301Z,2.23
2023-01-19T16:41:42.468Z,2.12
2023-01-19T16:44:17.595Z,2.05
2023-01-19T16:46:46.476Z,2.00
2023-01-19T16:49:28.089Z,1.93
2023-01-19T16:54:39.766Z,1.81
2023-01-19T16:57:08.704Z,1.75
2023-01-19T16:59:35.555Z,1.65
2023-01-19T17:02:04.920Z,1.59
2023-01-19T17:04:34.594Z,1.55
2023-01-19T17:07:01.054Z,1.49
2023-01-19T17:09:30.576Z,1.40
2023-01-19T17:12:00.280Z,1.38
2023-01-19T17:14:30.268Z,1.31
2023-01-19T17:16:56.976Z,1.20
2023-01-19T17:19:32.464Z,1.13
2023-01-19T17:21:58.957Z,1.11
2023-01-19T17:24:25.561Z,1.08
2023-01-19T17:26:52.035Z,1.04
2023-01-19T17:29:21.659Z,1.03
2023-01-19T17:31:51.517Z,1.05
2023-01-19T17:39:49.326Z,1.07
2023-01-19T17:42:15.877Z,1.06
2023-01-19T17:44:42.427Z,1.05
2023-01-19T17:47:09.585Z,1.01
2023-01-19T17:49:38.849Z,0.98
2023-01-19T17:52:05.198Z,0.90
2023-01-19T17:54:36.120Z,0.83
2023-01-19T17:57:05.329Z,0.78
2023-01-19T17:59:34.719Z,0.71
2023-01-19T18:02:01.380Z,0.67
2023-01-19T18:04:43.000Z,0.64
2023-01-19T18:07:09.361Z,0.60
2023-01-19T18:09:35.737Z,0.58
2023-01-19T18:12:15.164Z,0.52
2023-01-19T18:14:43.364Z,0.47
2023-01-19T18:17:09.792Z,0.44
2023-01-19T18:19:36.995Z,0.42
2023-01-19T18:22:03.453Z,0.44
2023-01-19T18:24:32.990Z,0.50
2023-01-19T18:27:02.636Z,0.57
2023-01-19T18:29:35.679Z,0.66
2023-01-19T18:32:05.550Z,0.77
2023-01-19T18:34:39.292Z,0.86
2023-01-19T18:37:05.703Z,0.98
2023-01-19T18:39:32.172Z,1.04
2023-01-19T18:42:02.280Z,1.07
2023-01-19T18:44:31.743Z,1.15
2023-01-19T18:46:58.143Z,1.13
2023-01-19T18:49:33.587Z,1.13
2023-01-19T18:52:00.059Z,1.11
2023-01-19T18:54:29.589Z,1.15
2023-01-19T18:56:58.764Z,1.11
2023-01-19T18:59:28.132Z,1.13
2023-01-19T19:01:54.965Z,1.15
2023-01-19T19:04:21.414Z,1.20
2023-01-19T19:06:47.823Z,1.26
2023-01-19T19:09:14.277Z,1.46
2023-01-19T19:11:40.671Z,1.51
2023-01-19T19:14:07.111Z,1.67
2023-01-19T19:16:36.209Z,1.72
2023-01-19T19:19:11.835Z,1.85
2023-01-19T19:21:40.569Z,1.89
2023-01-19T19:24:08.321Z,1.76
2023-01-19T19:26:38.507Z,1.79
2023-01-19T19:29:10.834Z,1.99
2023-01-19T19:31:37.445Z,2.09
2023-01-19T19:34:04.003Z,2.15
2023-01-19T19:36:33.906Z,2.05
2023-01-19T19:39:03.039Z,2.07
2023-01-19T19:41:36.371Z,2.03
2023-01-19T19:44:05.683Z,2.02
2023-01-19T19:46:32.248Z,2.04
2023-01-19T19:49:02.023Z,2.02
2023-01-19T19:51:28.580Z,2.01
2023-01-19T19:53:59.411Z,2.00
2023-01-19T19:56:32.257Z,2.01
2023-01-19T19:59:07.065Z,1.99
2023-01-19T20:01:34.170Z,2.01
2023-01-19T20:04:19.978Z,2.01
2023-01-19T20:06:52.063Z,1.90
2023-01-19T20:09:18.556Z,1.87
2023-01-19T20:11:46.621Z,1.81
2023-01-19T20:14:16.556Z,1.78
2023-01-19T20:16:43.764Z,1.78
2023-01-19T20:19:10.813Z,1.77
2023-01-19T20:21:39.850Z,1.78
2023-01-19T20:24:09.799Z,1.75
2023-01-19T20:26:40.405Z,1.71
2023-01-19T20:29:10.959Z,1.66
2023-01-19T20:31:43.901Z,1.67
2023-01-19T20:34:14.830Z,1.66
2023-01-19T20:36:45.190Z,1.68
2023-01-19T20:39:15.153Z,1.70
2023-01-19T20:41:51.204Z,1.78
2023-01-19T20:44:23.329Z,1.75
2023-01-19T20:46:54.033Z,1.76
2023-01-19T20:49:24.571Z,1.73
2023-01-19T20:51:53.288Z,1.78
2023-01-19T20:54:32.424Z,1.75
2023-01-19T20:56:59.812Z,1.71
2023-01-19T20:59:29.091Z,1.76
2023-01-19T21:02:07.932Z,1.71
2023-01-19T21:04:34.575Z,1.72
2023-01-19T21:07:05.209Z,1.74
2023-01-19T21:09:35.402Z,1.74
2023-01-19T21:12:04.692Z,1.74
2023-01-19T21:14:31.163Z,1.74
2023-01-19T21:16:58.398Z,1.75
2023-01-19T21:22:06.222Z,1.78
2023-01-19T21:24:35.134Z,1.76
2023-01-19T21:27:04.398Z,1.76
2023-01-19T21:29:37.504Z,1.66
2023-01-19T21:32:07.600Z,1.56
2023-01-19T21:34:42.037Z,1.50
2023-01-19T21:37:08.500Z,1.48
2023-01-19T21:39:34.894Z,1.39
2023-01-19T21:42:09.560Z,1.36
2023-01-19T21:44:36.073Z,1.30
2023-01-19T21:47:13.542Z,1.23
2023-01-19T21:49:39.880Z,1.17
2023-01-19T21:52:11.499Z,1.17
2023-01-19T21:54:37.877Z,1.19
2023-01-19T21:57:04.286Z,1.16
2023-01-19T21:59:34.165Z,1.07
2023-01-19T22:02:03.828Z,1.11
2023-01-19T22:04:32.897Z,1.04
2023-01-19T22:06:59.521Z,0.98
2023-01-19T22:09:28.893Z,0.94
2023-01-19T22:11:58.411Z,0.92
2023-01-19T22:14:32.329Z,0.92
2023-01-19T22:17:01.131Z,0.87
2023-01-19T22:19:34.953Z,1.01
2023-01-19T22:22:01.367Z,1.08
2023-01-19T22:24:28.477Z,1.13
2023-01-19T22:26:58.091Z,1.23
2023-01-19T22:29:28.019Z,1.28
2023-01-19T22:31:54.704Z,1.43
2023-01-19T22:34:25.261Z,1.42
2023-01-19T22:36:57.317Z,1.47
2023-01-19T22:39:27.829Z,1.44
2023-01-19T22:41:57.581Z,1.41
2023-01-19T22:44:27.013Z,1.44
2023-01-19T22:49:38.457Z,1.45
2023-01-19T22:52:05.050Z,1.43
2023-01-19T22:54:32.424Z,1.46
2023-01-19T22:56:58.827Z,1.38
2023-01-19T22:59:28.431Z,1.32
2023-01-19T23:01:54.927Z,1.25
2023-01-19T23:04:21.321Z,1.24
2023-01-19T23:06:57.191Z,1.21
2023-01-19T23:09:23.580Z,1.17
2023-01-19T23:11:56.108Z,1.20
2023-01-19T23:14:22.646Z,1.33
2023-01-19T23:16:49.141Z,1.25
2023-01-19T23:19:18.961Z,1.30
2023-01-19T23:21:51.134Z,1.29
2023-01-19T23:24:23.492Z,1.21
2023-01-19T23:26:50.451Z,1.16
2023-01-19T23:29:18.160Z,1.18
2023-01-19T23:31:47.653Z,1.15
2023-01-19T23:34:14.918Z,1.14
2023-01-19T23:36:45.168Z,1.16
2023-01-19T23:39:21.134Z,1.09
2023-01-19T23:41:53.012Z,1.02
2023-01-19T23:44:19.664Z,0.99
2023-01-19T23:46:54.333Z,0.90
2023-01-19T23:49:23.614Z,0.82
2023-01-19T23:51:49.951Z,0.75
2023-01-19T23:54:19.259Z,0.71
2023-01-19T23:56:48.596Z,0.68
2023-01-19T23:59:19.997Z,0.61
